createdAt,value
2019-01-17T00:03:18.009Z,62.20
2019-01-17T00:08:34.276Z,61.90
2019-01-17T00:13:54.590Z,62.20
2019-01-17T00:19:17.796Z,62.50
2019-01-17T00:24:42.891Z,62.50
2019-01-17T00:30:08.915Z,62.80
2019-01-17T00:35:35.571Z,62.70
2019-01-17T00:40:50.272Z,63.00
2019-01-17T00:46:16.625Z,62.70
2019-01-17T00:51:43.220Z,63.20
2019-01-17T00:57:06.877Z,63.10
2019-01-17T01:02:36.800Z,63.90
2019-01-17T01:08:07.521Z,63.60
2019-01-17T01:13:23.409Z,63.80
2019-01-17T01:18:43.835Z,63.80
2019-01-17T01:24:01.958Z,64.20
2019-01-17T01:29:20.255Z,64.20
2019-01-17T01:34:35.082Z,64.00
2019-01-17T01:40:05.629Z,64.10
2019-01-17T01:45:22.412Z,64.50
2019-01-17T01:50:44.587Z,64.20
2019-01-17T01:55:48.658Z,64.30
2019-01-17T02:00:52.711Z,64.60
2019-01-17T02:05:57.185Z,64.70
2019-01-17T02:11:01.251Z,64.80
2019-01-17T02:16:05.327Z,64.80
2019-01-17T02:21:10.571Z,64.90
2019-01-17T02:26:14.631Z,64.90
2019-01-17T02:31:18.706Z,65.10
2019-01-17T02:36:23.430Z,65.40
2019-01-17T02:41:28.045Z,66.40
2019-01-17T02:46:32.965Z,65.30
2019-01-17T02:51:37.006Z,65.50
2019-01-17T02:56:42.148Z,65.70
2019-01-17T03:01:46.072Z,65.70
2019-01-17T03:06:50.315Z,65.80
2019-01-17T03:11:55.155Z,65.80
2019-01-17T03:17:00.357Z,65.90
2019-01-17T03:22:04.511Z,65.60
2019-01-17T03:27:09.467Z,66.40
2019-01-17T03:32:13.513Z,66.20
2019-01-17T03:37:18.359Z,66.00
2019-01-17T03:42:22.981Z,66.40
2019-01-17T03:47:26.976Z,66.40
2019-01-17T03:52:31.095Z,66.40
2019-01-17T03:57:35.132Z,66.50
2019-01-17T04:02:39.184Z,66.40
2019-01-17T04:07:43.722Z,66.70
2019-01-17T04:12:48.535Z,66.70
2019-01-17T04:17:53.244Z,67.00
2019-01-17T04:22:57.396Z,66.80
2019-01-17T04:28:01.287Z,66.90
2019-01-17T04:33:06.099Z,66.80
2019-01-17T04:38:10.137Z,66.40
2019-01-17T04:43:14.045Z,66.90
2019-01-17T04:48:18.401Z,67.30
2019-01-17T04:53:22.509Z,66.80
2019-01-17T04:58:28.345Z,66.60
2019-01-17T05:03:32.559Z,66.70
2019-01-17T05:08:36.611Z,66.80
2019-01-17T05:13:40.940Z,67.00
2019-01-17T05:18:46.959Z,67.00
2019-01-17T05:23:50.940Z,67.10
2019-01-17T05:28:55.289Z,67.80
2019-01-17T05:33:59.312Z,66.70
2019-01-17T05:39:04.540Z,66.70
2019-01-17T05:44:08.559Z,66.90
2019-01-17T05:49:12.595Z,66.80
2019-01-17T05:54:18.003Z,66.80
2019-01-17T05:59:23.034Z,66.70
2019-01-17T06:04:27.171Z,66.90
2019-01-17T06:09:31.064Z,66.60
2019-01-17T06:14:35.019Z,67.10
2019-01-17T06:19:39.063Z,66.80
2019-01-17T06:24:42.956Z,66.80
2019-01-17T06:29:47.426Z,67.40
2019-01-17T06:34:52.035Z,66.70
2019-01-17T06:39:56.068Z,66.80
2019-01-17T06:45:00.049Z,66.90
2019-01-17T06:50:04.764Z,66.60
2019-01-17T06:55:08.914Z,66.90
2019-01-17T07:00:14.716Z,66.70
2019-01-17T07:05:19.039Z,66.90
2019-01-17T07:10:23.243Z,66.80
2019-01-17T07:15:28.290Z,66.90
2019-01-17T07:20:32.368Z,66.90
2019-01-17T07:25:40.977Z,66.90
2019-01-17T07:30:42.996Z,66.80
2019-01-17T07:35:47.722Z,66.60
2019-01-17T07:40:51.735Z,66.60
2019-01-17T07:45:56.251Z,66.90
2019-01-17T07:51:00.315Z,66.80
2019-01-17T07:56:04.476Z,66.90
2019-01-17T08:01:14.849Z,66.60
2019-01-17T08:06:14.276Z,66.80
2019-01-17T08:11:18.307Z,66.50
2019-01-17T08:16:22.343Z,66.70
2019-01-17T08:21:28.317Z,66.50
2019-01-17T08:26:32.347Z,66.70
2019-01-17T08:31:37.335Z,66.40
2019-01-17T08:36:42.363Z,67.20
2019-01-17T08:41:46.307Z,67.20
2019-01-17T08:46:50.343Z,66.80
2019-01-17T08:51:54.410Z,66.60
2019-01-17T08:56:59.054Z,66.70
2019-01-17T09:02:03.011Z,66.40
2019-01-17T09:07:07.004Z,66.60
2019-01-17T09:12:10.963Z,66.50
2019-01-17T09:17:14.987Z,66.70
2019-01-17T09:22:18.937Z,66.90
2019-01-17T09:27:23.064Z,66.70
2019-01-17T09:32:28.391Z,66.70
2019-01-17T09:37:33.562Z,67.40
2019-01-17T09:42:37.681Z,67.00
2019-01-17T09:47:41.898Z,66.60
2019-01-17T09:52:46.203Z,66.90
2019-01-17T09:57:50.255Z,66.70
2019-01-17T10:02:54.295Z,66.80
2019-01-17T10:07:58.427Z,66.60
2019-01-17T10:13:02.383Z,66.90
2019-01-17T10:19:12.163Z,67.20
2019-01-17T10:25:09.403Z,66.30
2019-01-17T10:30:52.035Z,67.00
2019-01-17T10:36:19.823Z,68.00
2019-01-17T10:42:10.139Z,67.70
2019-01-17T10:47:50.015Z,67.10
2019-01-17T10:53:17.145Z,67.80
2019-01-17T10:58:36.979Z,66.90
2019-01-17T11:04:16.681Z,66.60
2019-01-17T11:09:44.406Z,67.10
2019-01-17T11:14:54.815Z,66.30
2019-01-17T11:20:28.152Z,66.30
2019-01-17T11:26:12.534Z,66.30
2019-01-17T11:31:37.621Z,66.80
2019-01-17T11:37:21.743Z,66.40
2019-01-17T11:42:48.172Z,67.80
2019-01-17T11:48:22.140Z,67.00
2019-01-17T11:53:53.399Z,66.90
2019-01-17T11:59:06.875Z,67.20
2019-01-17T12:04:32.575Z,66.90
2019-01-17T12:09:36.519Z,68.00
2019-01-17T12:14:40.397Z,67.30
2019-01-17T12:19:44.959Z,67.80
2019-01-17T12:24:48.836Z,67.30
2019-01-17T12:29:52.903Z,67.10
2019-01-17T12:34:56.903Z,66.70
2019-01-17T12:40:00.795Z,67.00
2019-01-17T12:45:05.704Z,66.70
2019-01-17T12:50:15.116Z,67.10
2019-01-17T12:55:19.132Z,69.80
2019-01-17T13:00:24.647Z,66.80
2019-01-17T13:05:29.924Z,67.00
2019-01-17T13:10:33.888Z,66.70
2019-01-17T13:15:38.033Z,66.70
2019-01-17T13:20:42.167Z,66.40
2019-01-17T13:25:46.202Z,66.60
2019-01-17T13:30:51.024Z,66.50
2019-01-17T13:35:54.962Z,66.30
2019-01-17T13:40:59.228Z,66.60
2019-01-17T13:46:03.344Z,66.40
2019-01-17T13:51:08.666Z,66.20
2019-01-17T13:56:12.675Z,66.50
2019-01-17T14:01:16.769Z,66.90
2019-01-17T14:06:20.735Z,66.20
2019-01-17T14:11:24.686Z,66.20
2019-01-17T14:16:28.727Z,66.30
2019-01-17T14:21:32.755Z,66.20
2019-01-17T14:26:36.799Z,66.30
2019-01-17T14:31:40.701Z,66.10
2019-01-17T14:36:44.792Z,66.50
2019-01-17T14:41:48.772Z,66.40
2019-01-17T14:46:52.710Z,66.60
2019-01-17T14:51:56.937Z,70.60
2019-01-17T14:57:00.904Z,66.80
2019-01-17T15:02:05.031Z,67.30
2019-01-17T15:07:09.059Z,66.80
2019-01-17T15:12:13.100Z,66.70
2019-01-17T15:17:16.992Z,66.30
2019-01-17T15:22:20.960Z,66.50
2019-01-17T15:27:27.364Z,66.50
2019-01-17T15:32:30.776Z,66.20
2019-01-17T15:37:34.745Z,66.70
2019-01-17T15:42:39.971Z,66.20
2019-01-17T15:47:44.234Z,66.50
2019-01-17T15:52:48.335Z,66.30
2019-01-17T15:57:52.311Z,66.20
2019-01-17T16:02:57.422Z,66.10
2019-01-17T16:08:01.414Z,65.80
2019-01-17T16:13:05.525Z,66.00
2019-01-17T16:18:09.411Z,65.80
2019-01-17T16:23:14.118Z,66.00
2019-01-17T16:28:18.142Z,65.70
2019-01-17T16:33:22.087Z,65.90
2019-01-17T16:38:26.327Z,66.00
2019-01-17T16:43:30.223Z,66.00
2019-01-17T16:48:34.195Z,65.90
2019-01-17T16:53:38.289Z,66.10
2019-01-17T16:58:42.275Z,65.70
2019-01-17T17:03:46.319Z,65.70
2019-01-17T17:08:50.270Z,65.50
2019-01-17T17:13:54.224Z,65.40
2019-01-17T17:18:58.287Z,65.50
2019-01-17T17:24:02.256Z,65.40
2019-01-17T17:29:06.811Z,65.00
2019-01-17T17:34:11.588Z,64.80
2019-01-17T17:39:15.723Z,65.10
2019-01-17T17:44:19.606Z,65.00
2019-01-17T17:49:23.739Z,64.90
2019-01-17T17:54:27.735Z,65.30
2019-01-17T17:59:31.772Z,64.80
2019-01-17T18:04:36.383Z,64.70
2019-01-17T18:09:40.336Z,64.80
2019-01-17T18:14:44.255Z,64.90
2019-01-17T18:19:48.227Z,64.70
2019-01-17T18:24:52.259Z,65.00
2019-01-17T18:29:56.312Z,65.40
2019-01-17T18:35:00.295Z,64.60
2019-01-17T18:40:05.211Z,64.60
2019-01-17T18:45:11.543Z,64.50
2019-01-17T18:50:18.851Z,64.40
2019-01-17T18:55:22.926Z,64.50
2019-01-17T19:00:31.723Z,64.10
2019-01-17T19:05:35.756Z,64.10
2019-01-17T19:10:39.735Z,64.00
2019-01-17T19:15:43.807Z,63.90
2019-01-17T19:20:47.779Z,64.40
2019-01-17T19:25:51.675Z,64.10
2019-01-17T19:30:55.703Z,64.30
2019-01-17T19:36:00.050Z,63.80
2019-01-17T19:41:04.148Z,64.70
2019-01-17T19:46:08.307Z,64.90
2019-01-17T19:51:12.359Z,64.00
2019-01-17T19:56:16.386Z,63.80
2019-01-17T20:01:20.451Z,64.50
2019-01-17T20:06:24.503Z,63.70
2019-01-17T20:11:28.547Z,64.20
2019-01-17T20:16:32.627Z,64.40
2019-01-17T20:21:36.720Z,64.00
2019-01-17T20:26:40.696Z,64.20
2019-01-17T20:31:44.820Z,64.10
2019-01-17T20:36:48.987Z,64.00
2019-01-17T20:41:52.872Z,64.00
2019-01-17T20:46:56.923Z,63.90
2019-01-17T20:52:02.007Z,63.70
2019-01-17T20:57:07.515Z,63.30
2019-01-17T21:02:19.614Z,63.50
2019-01-17T21:07:23.634Z,63.90
2019-01-17T21:12:27.616Z,63.70
2019-01-17T21:17:31.639Z,63.70
2019-01-17T21:22:35.631Z,63.80
2019-01-17T21:27:41.302Z,63.60
2019-01-17T21:32:45.562Z,63.60
2019-01-17T21:37:51.451Z,63.40
2019-01-17T21:43:00.092Z,63.40
2019-01-17T21:48:05.715Z,63.60
2019-01-17T21:53:09.779Z,64.00
2019-01-17T21:58:14.025Z,63.60
2019-01-17T22:03:17.940Z,63.60
2019-01-17T22:08:22.890Z,63.60
2019-01-17T22:13:27.017Z,63.80
2019-01-17T22:18:30.980Z,63.60
2019-01-17T22:23:35.033Z,63.30
2019-01-17T22:28:39.851Z,63.80
2019-01-17T22:33:43.852Z,64.40
2019-01-17T22:38:47.820Z,63.90
2019-01-17T22:43:52.095Z,63.80
2019-01-17T22:48:56.139Z,63.80
2019-01-17T22:54:00.979Z,64.00
2019-01-17T22:59:09.222Z,64.20
2019-01-17T23:04:10.661Z,64.10
2019-01-17T23:09:14.981Z,64.30
2019-01-17T23:14:19.071Z,63.80
2019-01-17T23:19:23.146Z,63.80
2019-01-17T23:24:27.251Z,63.80
2019-01-17T23:29:31.300Z,63.80
2019-01-17T23:34:35.591Z,63.60
2019-01-17T23:39:39.638Z,63.60
2019-01-17T23:44:43.610Z,63.40
2019-01-17T23:49:47.784Z,63.30
2019-01-17T23:54:52.797Z,63.60
2019-01-17T23:59:56.762Z,63.70
